sensor_id;sensor_type;location;lat;lon;timestamp;temperature;humidity
83841;DHT22;73868;52.172;10.668;2024-02-21T00:00:45;8.30;90.90
83841;DHT22;73868;52.172;10.668;2024-02-21T00:03:11;8.30;90.90
83841;DHT22;73868;52.172;10.668;2024-02-21T00:05:37;8.30;90.80
83841;DHT22;73868;52.172;10.668;2024-02-21T00:08:02;8.30;90.60
83841;DHT22;73868;52.172;10.668;2024-02-21T00:10:31;8.20;91.40
83841;DHT22;73868;52.172;10.668;2024-02-21T00:13:00;8.20;90.70
83841;DHT22;73868;52.172;10.668;2024-02-21T00:15:26;8.30;90.90
83841;DHT22;73868;52.172;10.668;2024-02-21T00:17:51;8.30;90.70
83841;DHT22;73868;52.172;10.668;2024-02-21T00:20:17;8.30;90.70
83841;DHT22;73868;52.172;10.668;2024-02-21T00:22:43;8.30;90.30
83841;DHT22;73868;52.172;10.668;2024-02-21T00:25:09;8.30;90.40
83841;DHT22;73868;52.172;10.668;2024-02-21T00:27:35;8.30;90.40
83841;DHT22;73868;52.172;10.668;2024-02-21T00:30:01;8.30;90.30
83841;DHT22;73868;52.172;10.668;2024-02-21T00:32:26;8.40;90.50
83841;DHT22;73868;52.172;10.668;2024-02-21T00:34:52;8.30;90.60
83841;DHT22;73868;52.172;10.668;2024-02-21T00:37:17;8.30;90.30
83841;DHT22;73868;52.172;10.668;2024-02-21T00:39:43;8.30;90.00
83841;DHT22;73868;52.172;10.668;2024-02-21T00:42:08;8.30;90.20
83841;DHT22;73868;52.172;10.668;2024-02-21T00:44:34;8.30;90.20
83841;DHT22;73868;52.172;10.668;2024-02-21T00:47:00;8.40;90.10
83841;DHT22;73868;52.172;10.668;2024-02-21T00:49:26;8.40;89.60
83841;DHT22;73868;52.172;10.668;2024-02-21T00:51:51;8.30;89.50
83841;DHT22;73868;52.172;10.668;2024-02-21T00:54:17;8.40;89.60
83841;DHT22;73868;52.172;10.668;2024-02-21T00:56:43;8.40;89.50
83841;DHT22;73868;52.172;10.668;2024-02-21T00:59:08;8.30;89.60
83841;DHT22;73868;52.172;10.668;2024-02-21T01:01:34;8.30;89.40
83841;DHT22;73868;52.172;10.668;2024-02-21T01:03:59;8.40;89.00
83841;DHT22;73868;52.172;10.668;2024-02-21T01:06:25;8.40;89.10
83841;DHT22;73868;52.172;10.668;2024-02-21T01:08:51;8.40;89.40
83841;DHT22;73868;52.172;10.668;2024-02-21T01:11:16;8.40;89.20
83841;DHT22;73868;52.172;10.668;2024-02-21T01:13:42;8.40;89.10
83841;DHT22;73868;52.172;10.668;2024-02-21T01:16:08;8.40;89.00
83841;DHT22;73868;52.172;10.668;2024-02-21T01:18:34;8.50;89.00
83841;DHT22;73868;52.172;10.668;2024-02-21T01:21:00;8.40;89.20
83841;DHT22;73868;52.172;10.668;2024-02-21T01:23:26;8.40;89.10
83841;DHT22;73868;52.172;10.668;2024-02-21T01:25:51;8.40;89.10
83841;DHT22;73868;52.172;10.668;2024-02-21T01:28:18;8.50;89.00
83841;DHT22;73868;52.172;10.668;2024-02-21T01:30:43;8.50;89.30
83841;DHT22;73868;52.172;10.668;2024-02-21T01:33:09;8.50;89.10
83841;DHT22;73868;52.172;10.668;2024-02-21T01:35:35;8.50;89.00
83841;DHT22;73868;52.172;10.668;2024-02-21T01:38:01;8.50;88.80
83841;DHT22;73868;52.172;10.668;2024-02-21T01:40:26;8.50;89.20
83841;DHT22;73868;52.172;10.668;2024-02-21T01:42:55;8.50;89.20
83841;DHT22;73868;52.172;10.668;2024-02-21T01:45:20;8.50;89.20
83841;DHT22;73868;52.172;10.668;2024-02-21T01:47:46;8.50;89.30
83841;DHT22;73868;52.172;10.668;2024-02-21T01:50:14;8.50;89.40
83841;DHT22;73868;52.172;10.668;2024-02-21T01:52:40;8.50;89.80
83841;DHT22;73868;52.172;10.668;2024-02-21T01:55:07;8.50;89.80
83841;DHT22;73868;52.172;10.668;2024-02-21T01:57:35;8.50;89.70
83841;DHT22;73868;52.172;10.668;2024-02-21T02:00:01;8.60;89.90
83841;DHT22;73868;52.172;10.668;2024-02-21T02:02:27;8.60;89.90
83841;DHT22;73868;52.172;10.668;2024-02-21T02:04:52;8.60;89.60
83841;DHT22;73868;52.172;10.668;2024-02-21T02:07:18;8.60;89.60
83841;DHT22;73868;52.172;10.668;2024-02-21T02:09:44;8.60;89.70
83841;DHT22;73868;52.172;10.668;2024-02-21T02:12:09;8.60;89.80
83841;DHT22;73868;52.172;10.668;2024-02-21T02:14:35;8.60;90.00
83841;DHT22;73868;52.172;10.668;2024-02-21T02:17:00;8.70;89.80
83841;DHT22;73868;52.172;10.668;2024-02-21T02:19:26;8.60;90.00
83841;DHT22;73868;52.172;10.668;2024-02-21T02:21:59;8.60;89.90
83841;DHT22;73868;52.172;10.668;2024-02-21T02:24:27;8.60;89.90
83841;DHT22;73868;52.172;10.668;2024-02-21T02:26:53;8.60;89.90
83841;DHT22;73868;52.172;10.668;2024-02-21T02:29:19;8.60;90.10
83841;DHT22;73868;52.172;10.668;2024-02-21T02:31:44;8.60;89.90
83841;DHT22;73868;52.172;10.668;2024-02-21T02:34:10;8.60;89.70
83841;DHT22;73868;52.172;10.668;2024-02-21T02:36:36;8.60;89.80
83841;DHT22;73868;52.172;10.668;2024-02-21T02:39:01;8.70;89.70
83841;DHT22;73868;52.172;10.668;2024-02-21T02:41:27;8.70;90.00
83841;DHT22;73868;52.172;10.668;2024-02-21T02:43:52;8.60;89.80
83841;DHT22;73868;52.172;10.668;2024-02-21T02:46:18;8.60;89.80
83841;DHT22;73868;52.172;10.668;2024-02-21T02:48:43;8.70;89.70
83841;DHT22;73868;52.172;10.668;2024-02-21T02:51:10;8.60;89.70
83841;DHT22;73868;52.172;10.668;2024-02-21T02:53:36;8.70;89.60
83841;DHT22;73868;52.172;10.668;2024-02-21T02:56:01;8.70;89.60
83841;DHT22;73868;52.172;10.668;2024-02-21T02:58:27;8.60;89.70
83841;DHT22;73868;52.172;10.668;2024-02-21T03:00:53;8.60;89.50
83841;DHT22;73868;52.172;10.668;2024-02-21T03:03:19;8.60;89.50
83841;DHT22;73868;52.172;10.668;2024-02-21T03:05:44;8.60;89.70
83841;DHT22;73868;52.172;10.668;2024-02-21T03:08:11;8.70;89.40
83841;DHT22;73868;52.172;10.668;2024-02-21T03:10:36;8.70;89.40
83841;DHT22;73868;52.172;10.668;2024-02-21T03:13:02;8.60;89.30
83841;DHT22;73868;52.172;10.668;2024-02-21T03:15:29;8.70;89.30
83841;DHT22;73868;52.172;10.668;2024-02-21T03:17:54;8.70;89.30
83841;DHT22;73868;52.172;10.668;2024-02-21T03:20:20;8.60;89.10
83841;DHT22;73868;52.172;10.668;2024-02-21T03:22:45;8.60;89.20
83841;DHT22;73868;52.172;10.668;2024-02-21T03:25:11;8.60;89.10
83841;DHT22;73868;52.172;10.668;2024-02-21T03:27:38;8.60;89.40
83841;DHT22;73868;52.172;10.668;2024-02-21T03:30:04;8.60;89.40
83841;DHT22;73868;52.172;10.668;2024-02-21T03:32:29;8.60;89.20
83841;DHT22;73868;52.172;10.668;2024-02-21T03:34:55;8.70;89.00
83841;DHT22;73868;52.172;10.668;2024-02-21T03:37:21;8.70;88.90
83841;DHT22;73868;52.172;10.668;2024-02-21T03:39:46;8.70;89.00
83841;DHT22;73868;52.172;10.668;2024-02-21T03:42:12;8.70;89.00
83841;DHT22;73868;52.172;10.668;2024-02-21T03:44:37;8.60;89.10
83841;DHT22;73868;52.172;10.668;2024-02-21T03:47:03;8.70;88.90
83841;DHT22;73868;52.172;10.668;2024-02-21T03:49:29;8.70;88.80
83841;DHT22;73868;52.172;10.668;2024-02-21T03:51:55;8.70;88.70
83841;DHT22;73868;52.172;10.668;2024-02-21T03:54:20;8.70;88.70
83841;DHT22;73868;52.172;10.668;2024-02-21T03:56:47;8.70;88.20
83841;DHT22;73868;52.172;10.668;2024-02-21T03:59:13;8.70;88.10
83841;DHT22;73868;52.172;10.668;2024-02-21T04:01:38;8.80;87.90
83841;DHT22;73868;52.172;10.668;2024-02-21T04:04:04;8.80;88.10
83841;DHT22;73868;52.172;10.668;2024-02-21T04:06:30;8.70;88.00
83841;DHT22;73868;52.172;10.668;2024-02-21T04:08:56;8.80;88.00
83841;DHT22;73868;52.172;10.668;2024-02-21T04:11:21;8.80;87.80
83841;DHT22;73868;52.172;10.668;2024-02-21T04:13:47;8.70;87.60
83841;DHT22;73868;52.172;10.668;2024-02-21T04:16:15;8.70;87.70
83841;DHT22;73868;52.172;10.668;2024-02-21T04:18:42;8.60;87.90
83841;DHT22;73868;52.172;10.668;2024-02-21T04:21:08;8.50;88.30
83841;DHT22;73868;52.172;10.668;2024-02-21T04:23:34;8.40;88.50
83841;DHT22;73868;52.172;10.668;2024-02-21T04:26:00;8.40;88.40
83841;DHT22;73868;52.172;10.668;2024-02-21T04:28:25;8.40;87.90
83841;DHT22;73868;52.172;10.668;2024-02-21T04:30:51;8.40;87.80
83841;DHT22;73868;52.172;10.668;2024-02-21T04:33:16;8.40;88.10
83841;DHT22;73868;52.172;10.668;2024-02-21T04:35:42;8.30;88.70
83841;DHT22;73868;52.172;10.668;2024-02-21T04:38:08;8.30;88.50
83841;DHT22;73868;52.172;10.668;2024-02-21T04:40:33;8.20;89.10
83841;DHT22;73868;52.172;10.668;2024-02-21T04:42:59;8.10;89.00
83841;DHT22;73868;52.172;10.668;2024-02-21T04:45:25;8.20;89.10
83841;DHT22;73868;52.172;10.668;2024-02-21T04:47:50;8.10;89.30
83841;DHT22;73868;52.172;10.668;2024-02-21T04:50:16;8.10;89.30
83841;DHT22;73868;52.172;10.668;2024-02-21T04:52:42;8.20;89.60
83841;DHT22;73868;52.172;10.668;2024-02-21T04:55:08;8.20;88.70
83841;DHT22;73868;52.172;10.668;2024-02-21T04:57:33;8.10;88.70
83841;DHT22;73868;52.172;10.668;2024-02-21T04:59:59;8.20;88.80
83841;DHT22;73868;52.172;10.668;2024-02-21T05:02:24;8.20;89.10
83841;DHT22;73868;52.172;10.668;2024-02-21T05:04:52;8.20;88.90
83841;DHT22;73868;52.172;10.668;2024-02-21T05:07:17;8.20;88.80
83841;DHT22;73868;52.172;10.668;2024-02-21T05:09:45;8.20;88.50
83841;DHT22;73868;52.172;10.668;2024-02-21T05:12:10;8.30;88.30
83841;DHT22;73868;52.172;10.668;2024-02-21T05:14:36;8.30;88.30
83841;DHT22;73868;52.172;10.668;2024-02-21T05:17:03;8.30;88.50
83841;DHT22;73868;52.172;10.668;2024-02-21T05:19:28;8.30;88.20
83841;DHT22;73868;52.172;10.668;2024-02-21T05:21:54;8.30;88.40
83841;DHT22;73868;52.172;10.668;2024-02-21T05:24:19;8.30;88.30
83841;DHT22;73868;52.172;10.668;2024-02-21T05:26:45;8.30;88.20
83841;DHT22;73868;52.172;10.668;2024-02-21T05:29:11;8.30;88.20
83841;DHT22;73868;52.172;10.668;2024-02-21T05:34:18;8.50;86.80
83841;DHT22;73868;52.172;10.668;2024-02-21T05:36:43;8.50;86.90
83841;DHT22;73868;52.172;10.668;2024-02-21T05:39:09;8.50;87.20
83841;DHT22;73868;52.172;10.668;2024-02-21T05:41:35;8.50;87.00
83841;DHT22;73868;52.172;10.668;2024-02-21T05:44:01;8.50;87.10
83841;DHT22;73868;52.172;10.668;2024-02-21T05:46:26;8.60;86.80
83841;DHT22;73868;52.172;10.668;2024-02-21T05:48:52;8.50;86.40
83841;DHT22;73868;52.172;10.668;2024-02-21T05:51:18;8.60;86.90
83841;DHT22;73868;52.172;10.668;2024-02-21T05:53:44;8.60;86.80
83841;DHT22;73868;52.172;10.668;2024-02-21T05:56:13;8.60;86.50
83841;DHT22;73868;52.172;10.668;2024-02-21T05:58:39;8.60;86.50
83841;DHT22;73868;52.172;10.668;2024-02-21T06:01:06;8.60;86.60
83841;DHT22;73868;52.172;10.668;2024-02-21T06:03:33;8.60;86.80
83841;DHT22;73868;52.172;10.668;2024-02-21T06:05:59;8.60;87.00
83841;DHT22;73868;52.172;10.668;2024-02-21T06:08:25;8.60;86.70
83841;DHT22;73868;52.172;10.668;2024-02-21T06:10:50;8.60;86.50
83841;DHT22;73868;52.172;10.668;2024-02-21T06:13:26;8.70;86.50
83841;DHT22;73868;52.172;10.668;2024-02-21T06:15:52;8.70;86.30
83841;DHT22;73868;52.172;10.668;2024-02-21T06:18:18;8.70;86.60
83841;DHT22;73868;52.172;10.668;2024-02-21T06:20:44;8.70;86.50
83841;DHT22;73868;52.172;10.668;2024-02-21T06:23:15;8.70;86.80
83841;DHT22;73868;52.172;10.668;2024-02-21T06:25:41;8.60;86.50
83841;DHT22;73868;52.172;10.668;2024-02-21T06:28:07;8.70;86.40
83841;DHT22;73868;52.172;10.668;2024-02-21T06:30:32;8.60;86.70
83841;DHT22;73868;52.172;10.668;2024-02-21T06:32:58;8.70;86.50
83841;DHT22;73868;52.172;10.668;2024-02-21T06:35:25;8.60;86.60
83841;DHT22;73868;52.172;10.668;2024-02-21T06:37:51;8.70;86.30
83841;DHT22;73868;52.172;10.668;2024-02-21T06:40:17;8.70;86.10
83841;DHT22;73868;52.172;10.668;2024-02-21T06:42:43;8.70;86.30
83841;DHT22;73868;52.172;10.668;2024-02-21T06:45:09;8.70;86.30
83841;DHT22;73868;52.172;10.668;2024-02-21T06:47:34;8.70;86.10
83841;DHT22;73868;52.172;10.668;2024-02-21T06:50:00;8.80;85.70
83841;DHT22;73868;52.172;10.668;2024-02-21T06:52:25;8.80;85.50
83841;DHT22;73868;52.172;10.668;2024-02-21T06:54:52;8.80;85.70
83841;DHT22;73868;52.172;10.668;2024-02-21T06:57:17;8.90;85.90
83841;DHT22;73868;52.172;10.668;2024-02-21T06:59:43;8.80;85.70
83841;DHT22;73868;52.172;10.668;2024-02-21T07:02:08;8.80;85.80
83841;DHT22;73868;52.172;10.668;2024-02-21T07:04:34;8.90;85.70
83841;DHT22;73868;52.172;10.668;2024-02-21T07:06:59;8.80;85.50
83841;DHT22;73868;52.172;10.668;2024-02-21T07:09:25;8.90;85.80
83841;DHT22;73868;52.172;10.668;2024-02-21T07:11:51;8.90;85.50
83841;DHT22;73868;52.172;10.668;2024-02-21T07:14:17;8.90;85.70
83841;DHT22;73868;52.172;10.668;2024-02-21T07:16:43;8.90;85.40
83841;DHT22;73868;52.172;10.668;2024-02-21T07:19:09;8.90;85.30
83841;DHT22;73868;52.172;10.668;2024-02-21T07:21:34;8.90;85.20
83841;DHT22;73868;52.172;10.668;2024-02-21T07:24:00;8.90;85.40
83841;DHT22;73868;52.172;10.668;2024-02-21T07:26:25;8.90;85.50
83841;DHT22;73868;52.172;10.668;2024-02-21T07:28:51;9.00;85.30
83841;DHT22;73868;52.172;10.668;2024-02-21T07:31:16;8.90;85.30
83841;DHT22;73868;52.172;10.668;2024-02-21T07:33:42;9.00;85.60
83841;DHT22;73868;52.172;10.668;2024-02-21T07:36:09;8.90;85.40
83841;DHT22;73868;52.172;10.668;2024-02-21T07:38:35;9.00;85.10
83841;DHT22;73868;52.172;10.668;2024-02-21T07:41:01;9.00;85.10
83841;DHT22;73868;52.172;10.668;2024-02-21T07:43:26;9.00;85.30
83841;DHT22;73868;52.172;10.668;2024-02-21T07:45:52;9.00;85.40
83841;DHT22;73868;52.172;10.668;2024-02-21T07:48:21;9.00;85.00
83841;DHT22;73868;52.172;10.668;2024-02-21T07:50:50;9.00;84.50
83841;DHT22;73868;52.172;10.668;2024-02-21T07:53:16;9.00;85.10
83841;DHT22;73868;52.172;10.668;2024-02-21T07:55:41;9.00;84.40
83841;DHT22;73868;52.172;10.668;2024-02-21T07:58:07;9.00;84.80
83841;DHT22;73868;52.172;10.668;2024-02-21T08:00:33;9.10;84.90
83841;DHT22;73868;52.172;10.668;2024-02-21T08:02:58;9.10;84.30
83841;DHT22;73868;52.172;10.668;2024-02-21T08:05:24;9.30;84.20
83841;DHT22;73868;52.172;10.668;2024-02-21T08:07:49;9.30;83.80
83841;DHT22;73868;52.172;10.668;2024-02-21T08:10:15;9.30;83.60
83841;DHT22;73868;52.172;10.668;2024-02-21T08:12:41;9.30;83.70
83841;DHT22;73868;52.172;10.668;2024-02-21T08:15:06;9.50;83.00
83841;DHT22;73868;52.172;10.668;2024-02-21T08:17:36;9.60;82.80
83841;DHT22;73868;52.172;10.668;2024-02-21T08:20:03;9.60;82.30
83841;DHT22;73868;52.172;10.668;2024-02-21T08:22:29;9.60;82.30
83841;DHT22;73868;52.172;10.668;2024-02-21T08:24:55;9.60;82.10
83841;DHT22;73868;52.172;10.668;2024-02-21T08:27:21;9.70;81.90
83841;DHT22;73868;52.172;10.668;2024-02-21T08:29:46;9.70;82.00
83841;DHT22;73868;52.172;10.668;2024-02-21T08:32:12;9.80;82.50
83841;DHT22;73868;52.172;10.668;2024-02-21T08:34:37;9.80;82.20
83841;DHT22;73868;52.172;10.668;2024-02-21T08:37:03;9.80;82.80
83841;DHT22;73868;52.172;10.668;2024-02-21T08:39:29;9.80;81.20
83841;DHT22;73868;52.172;10.668;2024-02-21T08:41:55;9.80;81.30
83841;DHT22;73868;52.172;10.668;2024-02-21T08:44:22;9.80;81.50
83841;DHT22;73868;52.172;10.668;2024-02-21T08:46:49;9.80;81.30
83841;DHT22;73868;52.172;10.668;2024-02-21T08:49:14;9.80;80.90
83841;DHT22;73868;52.172;10.668;2024-02-21T08:51:40;9.80;81.60
83841;DHT22;73868;52.172;10.668;2024-02-21T08:54:06;9.80;82.00
83841;DHT22;73868;52.172;10.668;2024-02-21T08:56:31;9.90;81.60
83841;DHT22;73868;52.172;10.668;2024-02-21T08:58:58;9.90;81.20
83841;DHT22;73868;52.172;10.668;2024-02-21T09:01:23;9.90;81.70
83841;DHT22;73868;52.172;10.668;2024-02-21T09:03:49;10.00;81.30
83841;DHT22;73868;52.172;10.668;2024-02-21T09:06:18;9.90;81.10
83841;DHT22;73868;52.172;10.668;2024-02-21T09:08:45;10.00;81.50
83841;DHT22;73868;52.172;10.668;2024-02-21T09:11:10;10.00;81.50
83841;DHT22;73868;52.172;10.668;2024-02-21T09:13:36;10.10;80.50
83841;DHT22;73868;52.172;10.668;2024-02-21T09:16:01;10.20;80.00
83841;DHT22;73868;52.172;10.668;2024-02-21T09:18:29;10.30;81.00
83841;DHT22;73868;52.172;10.668;2024-02-21T09:20:55;10.20;80.50
83841;DHT22;73868;52.172;10.668;2024-02-21T09:23:20;10.30;80.40
83841;DHT22;73868;52.172;10.668;2024-02-21T09:25:46;10.30;79.00
83841;DHT22;73868;52.172;10.668;2024-02-21T09:28:11;10.30;79.00
83841;DHT22;73868;52.172;10.668;2024-02-21T09:30:38;10.40;78.40
83841;DHT22;73868;52.172;10.668;2024-02-21T09:33:04;10.50;78.40
83841;DHT22;73868;52.172;10.668;2024-02-21T09:35:30;10.60;78.80
83841;DHT22;73868;52.172;10.668;2024-02-21T09:37:56;10.60;78.80
83841;DHT22;73868;52.172;10.668;2024-02-21T09:40:22;10.60;77.80
83841;DHT22;73868;52.172;10.668;2024-02-21T09:42:48;10.50;77.90
83841;DHT22;73868;52.172;10.668;2024-02-21T09:48:08;10.50;77.50
83841;DHT22;73868;52.172;10.668;2024-02-21T09:50:39;10.40;78.00
83841;DHT22;73868;52.172;10.668;2024-02-21T09:53:06;10.50;77.40
83841;DHT22;73868;52.172;10.668;2024-02-21T09:55:33;10.60;77.10
83841;DHT22;73868;52.172;10.668;2024-02-21T09:58:01;10.60;76.40
83841;DHT22;73868;52.172;10.668;2024-02-21T10:00:27;10.60;76.90
83841;DHT22;73868;52.172;10.668;2024-02-21T10:02:53;10.70;76.60
83841;DHT22;73868;52.172;10.668;2024-02-21T10:05:19;10.80;76.00
83841;DHT22;73868;52.172;10.668;2024-02-21T10:07:45;10.80;75.90
83841;DHT22;73868;52.172;10.668;2024-02-21T10:10:11;10.70;75.50
83841;DHT22;73868;52.172;10.668;2024-02-21T10:12:36;10.60;76.50
83841;DHT22;73868;52.172;10.668;2024-02-21T10:15:03;10.50;77.40
83841;DHT22;73868;52.172;10.668;2024-02-21T10:17:29;10.60;77.10
83841;DHT22;73868;52.172;10.668;2024-02-21T10:19:54;10.70;77.10
83841;DHT22;73868;52.172;10.668;2024-02-21T10:22:20;10.70;76.60
83841;DHT22;73868;52.172;10.668;2024-02-21T10:24:50;10.80;75.80
83841;DHT22;73868;52.172;10.668;2024-02-21T10:27:16;10.60;75.10
83841;DHT22;73868;52.172;10.668;2024-02-21T10:29:42;10.70;74.80
83841;DHT22;73868;52.172;10.668;2024-02-21T10:34:39;10.70;74.70
83841;DHT22;73868;52.172;10.668;2024-02-21T10:37:07;10.70;73.40
83841;DHT22;73868;52.172;10.668;2024-02-21T10:39:40;10.70;73.10
83841;DHT22;73868;52.172;10.668;2024-02-21T10:42:06;10.80;73.60
83841;DHT22;73868;52.172;10.668;2024-02-21T10:44:34;10.80;73.20
83841;DHT22;73868;52.172;10.668;2024-02-21T10:46:59;10.80;73.40
83841;DHT22;73868;52.172;10.668;2024-02-21T10:49:27;10.80;73.30
83841;DHT22;73868;52.172;10.668;2024-02-21T10:54:50;10.70;73.30
83841;DHT22;73868;52.172;10.668;2024-02-21T10:57:19;10.70;71.60
83841;DHT22;73868;52.172;10.668;2024-02-21T10:59:48;10.80;71.40
83841;DHT22;73868;52.172;10.668;2024-02-21T11:02:14;10.80;73.30
83841;DHT22;73868;52.172;10.668;2024-02-21T11:04:41;11.00;73.30
83841;DHT22;73868;52.172;10.668;2024-02-21T11:07:07;10.80;71.80
83841;DHT22;73868;52.172;10.668;2024-02-21T11:09:34;10.90;72.70
83841;DHT22;73868;52.172;10.668;2024-02-21T11:12:04;10.90;70.90
83841;DHT22;73868;52.172;10.668;2024-02-21T11:14:29;11.00;70.90
83841;DHT22;73868;52.172;10.668;2024-02-21T11:16:58;11.00;71.60
83841;DHT22;73868;52.172;10.668;2024-02-21T11:19:28;11.00;71.90
83841;DHT22;73868;52.172;10.668;2024-02-21T11:21:58;11.10;73.10
83841;DHT22;73868;52.172;10.668;2024-02-21T11:24:33;11.30;71.30
83841;DHT22;73868;52.172;10.668;2024-02-21T11:27:12;11.40;70.50
83841;DHT22;73868;52.172;10.668;2024-02-21T11:29:44;11.50;71.30
83841;DHT22;73868;52.172;10.668;2024-02-21T11:32:11;11.50;68.60
83841;DHT22;73868;52.172;10.668;2024-02-21T11:34:37;11.60;70.00
83841;DHT22;73868;52.172;10.668;2024-02-21T11:37:13;11.70;68.40
83841;DHT22;73868;52.172;10.668;2024-02-21T11:39:41;11.70;68.80
83841;DHT22;73868;52.172;10.668;2024-02-21T11:42:07;11.70;68.80
83841;DHT22;73868;52.172;10.668;2024-02-21T11:44:34;11.60;68.30
83841;DHT22;73868;52.172;10.668;2024-02-21T11:47:00;11.60;68.30
83841;DHT22;73868;52.172;10.668;2024-02-21T11:49:29;11.50;68.50
83841;DHT22;73868;52.172;10.668;2024-02-21T11:52:02;11.50;68.20
83841;DHT22;73868;52.172;10.668;2024-02-21T11:54:30;11.60;67.60
83841;DHT22;73868;52.172;10.668;2024-02-21T11:56:55;11.60;68.20
83841;DHT22;73868;52.172;10.668;2024-02-21T11:59:21;11.60;67.90
83841;DHT22;73868;52.172;10.668;2024-02-21T12:01:48;11.60;68.30
83841;DHT22;73868;52.172;10.668;2024-02-21T12:04:15;11.50;69.00
83841;DHT22;73868;52.172;10.668;2024-02-21T12:06:43;11.50;68.10
83841;DHT22;73868;52.172;10.668;2024-02-21T12:09:09;11.50;68.10
83841;DHT22;73868;52.172;10.668;2024-02-21T12:11:35;11.50;67.50
83841;DHT22;73868;52.172;10.668;2024-02-21T12:14:02;11.40;67.80
83841;DHT22;73868;52.172;10.668;2024-02-21T12:16:29;11.40;67.70
83841;DHT22;73868;52.172;10.668;2024-02-21T12:18:56;11.40;68.70
83841;DHT22;73868;52.172;10.668;2024-02-21T12:21:30;11.50;68.70
83841;DHT22;73868;52.172;10.668;2024-02-21T12:23:58;11.60;68.80
83841;DHT22;73868;52.172;10.668;2024-02-21T12:26:24;11.70;69.50
83841;DHT22;73868;52.172;10.668;2024-02-21T12:28:49;11.70;69.20
83841;DHT22;73868;52.172;10.668;2024-02-21T12:31:15;11.70;69.70
83841;DHT22;73868;52.172;10.668;2024-02-21T12:33:44;11.70;69.50
83841;DHT22;73868;52.172;10.668;2024-02-21T12:36:10;11.70;69.10
83841;DHT22;73868;52.172;10.668;2024-02-21T12:38:36;11.60;69.50
83841;DHT22;73868;52.172;10.668;2024-02-21T12:41:02;11.60;69.80
83841;DHT22;73868;52.172;10.668;2024-02-21T12:43:28;11.70;70.00
83841;DHT22;73868;52.172;10.668;2024-02-21T12:45:54;11.50;68.80
83841;DHT22;73868;52.172;10.668;2024-02-21T12:48:20;11.50;70.20
83841;DHT22;73868;52.172;10.668;2024-02-21T12:50:49;11.50;68.60
83841;DHT22;73868;52.172;10.668;2024-02-21T12:53:19;11.40;68.30
83841;DHT22;73868;52.172;10.668;2024-02-21T12:55:47;11.20;69.90
83841;DHT22;73868;52.172;10.668;2024-02-21T12:58:14;11.20;70.90
83841;DHT22;73868;52.172;10.668;2024-02-21T13:00:40;11.30;70.10
83841;DHT22;73868;52.172;10.668;2024-02-21T13:03:05;11.20;70.40
83841;DHT22;73868;52.172;10.668;2024-02-21T13:05:31;11.20;71.40
83841;DHT22;73868;52.172;10.668;2024-02-21T13:08:00;11.20;70.10
83841;DHT22;73868;52.172;10.668;2024-02-21T13:10:26;11.30;69.60
83841;DHT22;73868;52.172;10.668;2024-02-21T13:12:51;11.30;71.50
83841;DHT22;73868;52.172;10.668;2024-02-21T13:15:17;11.40;71.80
83841;DHT22;73868;52.172;10.668;2024-02-21T13:17:46;11.50;69.70
83841;DHT22;73868;52.172;10.668;2024-02-21T13:20:12;11.50;69.90
83841;DHT22;73868;52.172;10.668;2024-02-21T13:22:38;11.50;71.70
83841;DHT22;73868;52.172;10.668;2024-02-21T13:25:04;11.40;71.50
83841;DHT22;73868;52.172;10.668;2024-02-21T13:27:33;11.50;70.60
83841;DHT22;73868;52.172;10.668;2024-02-21T13:29:58;11.40;71.40
83841;DHT22;73868;52.172;10.668;2024-02-21T13:32:25;11.40;71.80
83841;DHT22;73868;52.172;10.668;2024-02-21T13:34:51;11.40;72.40
83841;DHT22;73868;52.172;10.668;2024-02-21T13:37:17;11.30;72.40
83841;DHT22;73868;52.172;10.668;2024-02-21T13:39:43;11.30;72.10
83841;DHT22;73868;52.172;10.668;2024-02-21T13:42:09;11.40;73.00
83841;DHT22;73868;52.172;10.668;2024-02-21T13:44:35;11.40;72.00
83841;DHT22;73868;52.172;10.668;2024-02-21T13:47:02;11.40;72.30
83841;DHT22;73868;52.172;10.668;2024-02-21T13:49:27;11.40;72.00
83841;DHT22;73868;52.172;10.668;2024-02-21T13:51:54;11.50;73.00
83841;DHT22;73868;52.172;10.668;2024-02-21T13:54:19;11.50;72.80
83841;DHT22;73868;52.172;10.668;2024-02-21T13:56:46;11.50;72.30
83841;DHT22;73868;52.172;10.668;2024-02-21T13:59:13;11.40;72.40
83841;DHT22;73868;52.172;10.668;2024-02-21T14:01:41;11.30;71.90
83841;DHT22;73868;52.172;10.668;2024-02-21T14:04:08;11.30;71.30
83841;DHT22;73868;52.172;10.668;2024-02-21T14:06:35;11.20;72.00
83841;DHT22;73868;52.172;10.668;2024-02-21T14:09:00;11.20;70.90
83841;DHT22;73868;52.172;10.668;2024-02-21T14:11:26;11.10;72.10
83841;DHT22;73868;52.172;10.668;2024-02-21T14:13:55;11.20;72.60
83841;DHT22;73868;52.172;10.668;2024-02-21T14:16:22;11.30;72.80
83841;DHT22;73868;52.172;10.668;2024-02-21T14:18:48;11.20;71.90
83841;DHT22;73868;52.172;10.668;2024-02-21T14:21:13;11.20;72.70
83841;DHT22;73868;52.172;10.668;2024-02-21T14:23:40;11.20;73.20
83841;DHT22;73868;52.172;10.668;2024-02-21T14:26:06;11.10;71.70
83841;DHT22;73868;52.172;10.668;2024-02-21T14:28:34;11.10;72.20
83841;DHT22;73868;52.172;10.668;2024-02-21T14:31:00;11.20;72.00
83841;DHT22;73868;52.172;10.668;2024-02-21T14:33:27;11.10;72.10
83841;DHT22;73868;52.172;10.668;2024-02-21T14:35:52;11.10;73.70
83841;DHT22;73868;52.172;10.668;2024-02-21T14:38:19;11.10;73.70
83841;DHT22;73868;52.172;10.668;2024-02-21T14:40:45;11.10;74.60
83841;DHT22;73868;52.172;10.668;2024-02-21T14:43:11;11.10;74.10
83841;DHT22;73868;52.172;10.668;2024-02-21T14:45:36;11.00;72.80
83841;DHT22;73868;52.172;10.668;2024-02-21T14:48:03;11.00;72.40
83841;DHT22;73868;52.172;10.668;2024-02-21T14:50:29;10.90;72.10
83841;DHT22;73868;52.172;10.668;2024-02-21T14:52:55;10.90;73.00
83841;DHT22;73868;52.172;10.668;2024-02-21T14:55:20;10.90;74.70
83841;DHT22;73868;52.172;10.668;2024-02-21T14:57:46;10.90;73.60
83841;DHT22;73868;52.172;10.668;2024-02-21T15:00:12;10.90;74.50
83841;DHT22;73868;52.172;10.668;2024-02-21T15:02:38;10.80;74.30
83841;DHT22;73868;52.172;10.668;2024-02-21T15:05:04;10.70;74.50
83841;DHT22;73868;52.172;10.668;2024-02-21T15:07:31;10.70;74.50
83841;DHT22;73868;52.172;10.668;2024-02-21T15:09:57;10.70;74.60
83841;DHT22;73868;52.172;10.668;2024-02-21T15:12:22;10.70;74.50
83841;DHT22;73868;52.172;10.668;2024-02-21T15:14:51;10.70;74.80
83841;DHT22;73868;52.172;10.668;2024-02-21T15:17:17;10.70;74.70
83841;DHT22;73868;52.172;10.668;2024-02-21T15:19:44;10.70;74.80
83841;DHT22;73868;52.172;10.668;2024-02-21T15:22:11;10.70;74.10
83841;DHT22;73868;52.172;10.668;2024-02-21T15:24:38;10.70;74.70
83841;DHT22;73868;52.172;10.668;2024-02-21T15:27:04;10.70;74.00
83841;DHT22;73868;52.172;10.668;2024-02-21T15:29:30;10.70;75.20